Hovedside
METAR-TAF:

METAR-TAF

Lufthavner :

Trollhättan-Vänersborg, Sverige

breddegrad: 58-19N, lengdegrad: 012-21E, høyde over havet: 41 m

Gjeldene værobservasjon

Denne rapporten ble laget for 19 minutter siden, klokken 12:20 UTC
Vind 12 kt fra Sørvest
Temperatur 6°C
Luftfuktighet 52%
Trykk 1007 hPa
Sikt 10 km eller mer
ingen skyer under 1500 m og ingen bygeskyer

METAR: ESGT 241220Z 22012KT CAVOK 06/M03 Q1007

Tid: 13:39 (12:39 UTC)

Varsel

Denne rapporten ble laget for 4 timer og 9 minutter siden, klokken 08:30 UTC
Varsel gyldig fra 24. klokken 09 UTC til 24. klokken 18 UTC
Vind 10 kt fra Vest
Sikt 10 km eller mer
ingen skyer under 1500 m og ingen bygeskyer
Blir
fra 24. klokken 15 UTC til 24. klokken 17 UTC
Vind 5 kt fra Sør-sørvest

TAF: ESGT 240830Z 2409/2418 27010KT CAVOK BECMG 2415/2417 20005KT

Værobservasjoner og værvarsel for over 4000 flyplasser (METAR- og TAF-rapporter).

Tilgjengelige stasjoner er representert av de røde og gule prikkene på kartet.

Hold musepekeren over prikken for å se navnet på stasjonen.

Klikk så for å se værobservasjoner og -varsler.

For å forandre kartet kan du klikke på den grønne knappen med svart kryss for å zoome inn, på den grønne knappen med strek for å zoome ut, eller på de grønne pilene for å se tilstøtende kart.


METAR-TAF: